createdAt,value
2022-10-15T00:01:49.724Z,71.60
2022-10-15T00:04:18.160Z,71.36
2022-10-15T00:06:46.418Z,71.08
2022-10-15T00:09:14.721Z,70.75
2022-10-15T00:11:42.950Z,70.31
2022-10-15T00:14:11.166Z,70.05
2022-10-15T00:16:39.435Z,69.70
2022-10-15T00:19:07.825Z,69.48
2022-10-15T00:21:37.365Z,69.58
2022-10-15T00:24:06.368Z,68.91
2022-10-15T00:26:34.701Z,68.61
2022-10-15T00:29:04.526Z,68.25
2022-10-15T00:31:33.690Z,68.18
2022-10-15T00:34:03.026Z,68.18
2022-10-15T00:36:35.679Z,67.94
2022-10-15T00:39:06.718Z,67.69
2022-10-15T00:41:42.057Z,67.55
2022-10-15T00:44:26.836Z,67.16
2022-10-15T00:47:38.006Z,66.85
2022-10-15T00:50:13.111Z,66.49
2022-10-15T00:52:43.940Z,66.58
2022-10-15T00:55:33.157Z,66.14
2022-10-15T00:58:07.184Z,66.14
2022-10-15T01:00:35.949Z,65.98
2022-10-15T01:03:04.192Z,65.56
2022-10-15T01:05:34.925Z,65.51
2022-10-15T01:08:03.326Z,65.05
2022-10-15T01:11:10.034Z,64.96
2022-10-15T01:13:48.024Z,64.38
2022-10-15T01:16:32.274Z,64.45
2022-10-15T01:19:28.287Z,64.65
2022-10-15T01:22:10.150Z,64.36
2022-10-15T01:24:39.278Z,64.10
2022-10-15T01:27:47.309Z,64.01
2022-10-15T01:30:42.305Z,63.76
2022-10-15T01:33:29.877Z,63.83
2022-10-15T01:36:16.225Z,63.44
2022-10-15T01:38:51.865Z,63.50
2022-10-15T01:41:25.685Z,62.95
2022-10-15T01:44:12.371Z,62.07
2022-10-15T01:47:04.091Z,61.35
2022-10-15T01:49:39.048Z,61.18
2022-10-15T01:52:16.894Z,61.28
2022-10-15T01:54:50.993Z,61.04
2022-10-15T01:57:21.946Z,61.44
2022-10-15T01:59:54.262Z,60.91
2022-10-15T02:02:25.765Z,60.83
2022-10-15T02:04:54.218Z,61.08
2022-10-15T02:08:09.918Z,61.04
2022-10-15T02:10:55.868Z,61.82
2022-10-15T02:13:48.628Z,62.13
2022-10-15T02:16:36.574Z,62.47
2022-10-15T02:19:07.009Z,62.46
2022-10-15T02:21:59.516Z,62.71
2022-10-15T02:24:36.517Z,62.97
2022-10-15T02:27:08.580Z,62.98
2022-10-15T02:29:41.539Z,63.01
2022-10-15T02:32:12.402Z,62.96
2022-10-15T02:34:41.741Z,63.10
2022-10-15T02:37:10.162Z,63.30
2022-10-15T02:39:38.629Z,63.36
2022-10-15T02:42:07.488Z,63.44
2022-10-15T02:44:35.830Z,63.37
2022-10-15T02:47:04.501Z,63.25
2022-10-15T02:49:32.935Z,63.25
2022-10-15T02:52:01.189Z,62.32
2022-10-15T02:54:30.678Z,62.30
2022-10-15T02:57:01.920Z,62.71
2022-10-15T02:59:31.322Z,63.15
2022-10-15T03:02:00.102Z,63.03
2022-10-15T03:04:28.805Z,63.00
2022-10-15T03:06:57.278Z,62.77
2022-10-15T03:09:25.740Z,62.64
2022-10-15T03:11:54.112Z,62.64
2022-10-15T03:14:22.591Z,62.76
2022-10-15T03:16:51.085Z,62.36
2022-10-15T03:19:19.897Z,62.66
2022-10-15T03:21:48.293Z,62.59
2022-10-15T03:24:16.848Z,62.00
2022-10-15T03:26:45.328Z,62.59
2022-10-15T03:29:13.910Z,62.71
2022-10-15T03:31:49.880Z,62.82
2022-10-15T03:34:18.818Z,62.80
2022-10-15T03:36:47.538Z,63.05
2022-10-15T03:39:17.869Z,62.99
2022-10-15T03:41:46.355Z,63.50
2022-10-15T03:44:20.462Z,63.86
2022-10-15T03:46:58.856Z,64.04
2022-10-15T03:49:29.978Z,64.19
2022-10-15T03:51:58.297Z,63.99
2022-10-15T03:54:27.074Z,64.06
2022-10-15T03:56:55.753Z,64.13
2022-10-15T03:59:28.929Z,63.57
2022-10-15T04:01:59.889Z,63.61
2022-10-15T04:04:28.483Z,63.60
2022-10-15T04:06:56.946Z,62.87
2022-10-15T04:09:26.144Z,63.51
2022-10-15T04:11:58.327Z,63.31
2022-10-15T04:14:26.798Z,63.48
2022-10-15T04:16:59.138Z,64.14
2022-10-15T04:19:29.273Z,64.13
2022-10-15T04:22:03.196Z,64.20
2022-10-15T04:24:34.399Z,64.46
2022-10-15T04:27:03.570Z,64.76
2022-10-15T04:29:32.581Z,64.52
2022-10-15T04:32:15.645Z,64.75
2022-10-15T04:34:46.542Z,64.62
2022-10-15T04:37:15.629Z,64.18
2022-10-15T04:39:44.180Z,63.98
2022-10-15T04:42:15.121Z,63.79
2022-10-15T04:44:43.676Z,63.27
2022-10-15T04:47:13.701Z,63.09
2022-10-15T04:49:48.490Z,63.26
2022-10-15T04:52:28.605Z,62.97
2022-10-15T04:54:58.868Z,62.34
2022-10-15T04:57:27.371Z,61.25
2022-10-15T04:59:57.855Z,61.27
2022-10-15T05:02:38.045Z,60.74
2022-10-15T05:05:47.854Z,60.60
2022-10-15T05:08:16.643Z,60.60
2022-10-15T05:11:09.819Z,61.19
2022-10-15T05:13:38.627Z,61.55
2022-10-15T05:16:22.393Z,61.72
2022-10-15T05:18:53.528Z,61.52
2022-10-15T05:21:21.811Z,61.30
2022-10-15T05:23:52.537Z,61.25
2022-10-15T05:26:41.614Z,60.97
2022-10-15T05:29:10.180Z,61.08
2022-10-15T05:31:39.799Z,61.30
2022-10-15T05:34:15.688Z,60.98
2022-10-15T05:37:05.125Z,60.98
2022-10-15T05:39:33.459Z,61.29
2022-10-15T05:42:02.082Z,61.33
2022-10-15T05:44:37.514Z,60.79
2022-10-15T05:47:06.839Z,60.70
2022-10-15T05:49:36.083Z,60.57
2022-10-15T05:52:13.095Z,60.35
2022-10-15T05:55:00.052Z,60.26
2022-10-15T05:57:28.301Z,60.55
2022-10-15T05:59:57.153Z,60.10
2022-10-15T06:02:25.705Z,60.08
2022-10-15T06:04:54.204Z,59.99
2022-10-15T06:07:22.736Z,59.73
2022-10-15T06:09:51.898Z,59.58
2022-10-15T06:12:20.185Z,59.91
2022-10-15T06:14:49.185Z,59.21
2022-10-15T06:17:17.523Z,59.31
2022-10-15T06:19:48.849Z,58.78
2022-10-15T06:22:17.589Z,58.31
2022-10-15T06:24:45.816Z,58.39
2022-10-15T06:27:14.232Z,58.75
2022-10-15T06:29:42.507Z,58.63
2022-10-15T06:32:11.858Z,57.68
2022-10-15T06:34:44.816Z,57.22
2022-10-15T06:37:13.204Z,57.70
2022-10-15T06:39:41.475Z,57.35
2022-10-15T06:42:09.897Z,56.72
2022-10-15T06:44:41.805Z,56.38
2022-10-15T06:47:10.224Z,56.21
2022-10-15T06:49:38.540Z,56.24
2022-10-15T06:52:06.804Z,56.21
2022-10-15T06:54:35.102Z,55.17
2022-10-15T06:57:03.447Z,55.18
2022-10-15T06:59:31.718Z,54.82
2022-10-15T07:02:01.966Z,55.07
2022-10-15T07:04:30.193Z,55.99
2022-10-15T07:06:58.438Z,55.79
2022-10-15T07:09:31.558Z,55.93
2022-10-15T07:12:00.060Z,55.66
2022-10-15T07:14:28.577Z,55.19
2022-10-15T07:16:57.913Z,55.79
2022-10-15T07:19:28.554Z,55.75
2022-10-15T07:21:57.226Z,54.76
2022-10-15T07:24:25.501Z,55.13
2022-10-15T07:26:53.751Z,54.71
2022-10-15T07:29:22.053Z,54.03
2022-10-15T07:31:50.282Z,53.89
2022-10-15T07:34:19.997Z,54.84
2022-10-15T07:36:48.382Z,54.87
2022-10-15T07:39:19.365Z,54.96
2022-10-15T07:41:47.819Z,54.38
2022-10-15T07:44:16.239Z,54.60
2022-10-15T07:46:44.460Z,54.45
2022-10-15T07:49:12.813Z,54.14
2022-10-15T07:51:41.282Z,54.10
2022-10-15T07:54:09.654Z,53.91
2022-10-15T07:56:37.889Z,53.64
2022-10-15T07:59:08.386Z,53.46
2022-10-15T08:01:36.789Z,52.91
2022-10-15T08:04:05.084Z,53.47
2022-10-15T08:06:33.779Z,53.61
2022-10-15T08:09:04.355Z,52.54
2022-10-15T08:11:32.598Z,51.53
2022-10-15T08:14:00.753Z,50.98
2022-10-15T08:16:28.989Z,51.68
2022-10-15T08:19:01.138Z,51.57
2022-10-15T08:21:29.654Z,51.22
2022-10-15T08:23:57.910Z,51.16
2022-10-15T08:26:35.447Z,47.42
2022-10-15T08:29:04.519Z,46.43
2022-10-15T08:31:32.888Z,45.99
2022-10-15T08:34:02.785Z,45.94
2022-10-15T08:36:31.277Z,47.08
2022-10-15T08:39:00.003Z,47.12
2022-10-15T08:41:51.413Z,47.05
2022-10-15T08:44:24.538Z,47.25
2022-10-15T08:47:08.506Z,47.82
2022-10-15T08:49:52.288Z,48.26
2022-10-15T08:52:59.226Z,48.41
2022-10-15T08:55:36.208Z,48.12
2022-10-15T08:58:17.261Z,48.56
2022-10-15T09:00:56.785Z,47.93
2022-10-15T09:03:45.532Z,47.48
2022-10-15T09:06:22.609Z,47.42
2022-10-15T09:09:45.909Z,47.05
2022-10-15T09:12:50.518Z,46.72
2022-10-15T09:15:25.398Z,47.15
2022-10-15T09:17:56.085Z,45.53
2022-10-15T09:20:36.133Z,45.08
2022-10-15T09:23:16.966Z,45.23
2022-10-15T09:25:52.207Z,45.65
2022-10-15T09:28:26.179Z,44.63
2022-10-15T09:30:58.403Z,43.85
2022-10-15T09:33:57.554Z,44.32
2022-10-15T09:36:52.101Z,43.97
2022-10-15T09:39:43.669Z,43.87
2022-10-15T09:42:31.918Z,41.84
2022-10-15T09:45:10.052Z,42.50
2022-10-15T09:47:42.833Z,42.51
2022-10-15T09:50:14.735Z,43.48
2022-10-15T09:53:15.522Z,42.21
2022-10-15T09:55:56.363Z,42.56
2022-10-15T09:58:37.743Z,43.10
2022-10-15T10:01:16.629Z,43.04
2022-10-15T10:03:44.780Z,42.84
2022-10-15T10:06:15.708Z,42.94
2022-10-15T10:08:59.553Z,42.01
2022-10-15T10:11:47.637Z,42.20
2022-10-15T10:14:39.677Z,42.05
2022-10-15T10:17:23.698Z,42.05
2022-10-15T10:20:10.419Z,43.26
2022-10-15T10:22:50.518Z,43.38
2022-10-15T10:25:27.890Z,43.80
2022-10-15T10:28:09.547Z,42.56
2022-10-15T10:30:54.474Z,42.90
2022-10-15T10:33:28.912Z,41.42
2022-10-15T10:35:57.638Z,42.09
2022-10-15T10:38:33.626Z,42.45
2022-10-15T10:41:11.888Z,42.46
2022-10-15T10:43:53.053Z,43.09
2022-10-15T10:46:24.650Z,42.89
2022-10-15T10:48:54.228Z,43.28
2022-10-15T10:51:27.043Z,43.25
2022-10-15T10:54:06.976Z,43.45
2022-10-15T10:56:42.701Z,43.86
2022-10-15T10:59:37.897Z,43.65
2022-10-15T11:02:12.439Z,43.21
2022-10-15T11:04:40.871Z,43.20
2022-10-15T11:07:35.454Z,43.13
2022-10-15T11:10:19.306Z,43.14
2022-10-15T11:13:18.921Z,43.06
2022-10-15T11:16:31.244Z,43.75
2022-10-15T11:19:55.002Z,42.96
2022-10-15T11:22:33.006Z,43.62
2022-10-15T11:25:39.345Z,43.86
2022-10-15T11:28:45.127Z,43.50
2022-10-15T11:31:25.515Z,43.16
2022-10-15T11:34:18.054Z,43.58
2022-10-15T11:37:21.686Z,43.07
2022-10-15T11:40:37.984Z,43.86
2022-10-15T11:43:31.149Z,42.93
2022-10-15T11:46:11.558Z,43.85
2022-10-15T11:48:55.414Z,43.25
2022-10-15T11:52:03.971Z,42.66
2022-10-15T11:54:38.655Z,43.77
2022-10-15T11:57:13.365Z,44.24
2022-10-15T12:00:07.442Z,43.60
2022-10-15T12:02:40.678Z,43.25
2022-10-15T12:05:27.738Z,44.18
2022-10-15T12:07:56.765Z,43.68
2022-10-15T12:11:07.656Z,43.64
2022-10-15T12:14:25.296Z,42.63
2022-10-15T12:17:15.624Z,42.60
2022-10-15T12:20:00.928Z,42.51
2022-10-15T12:22:41.261Z,42.57
2022-10-15T12:25:35.294Z,42.30
2022-10-15T12:28:22.695Z,43.23
2022-10-15T12:31:06.445Z,42.58
2022-10-15T12:33:57.989Z,43.65
2022-10-15T12:36:30.567Z,42.06
2022-10-15T12:39:11.459Z,42.54
2022-10-15T12:41:50.987Z,43.18
2022-10-15T12:44:28.467Z,42.86
2022-10-15T12:46:58.434Z,43.21
2022-10-15T12:49:26.624Z,43.19
2022-10-15T12:51:56.431Z,42.54
2022-10-15T12:54:41.248Z,43.08
2022-10-15T12:57:31.226Z,43.01
2022-10-15T13:00:38.961Z,41.91
2022-10-15T13:03:31.587Z,41.41
2022-10-15T13:06:22.002Z,42.43
2022-10-15T13:09:11.742Z,42.62
2022-10-15T13:11:53.041Z,41.91
2022-10-15T13:14:42.956Z,41.71
2022-10-15T13:17:20.965Z,41.02
2022-10-15T13:20:09.081Z,41.23
2022-10-15T13:22:37.638Z,41.45
2022-10-15T13:25:17.451Z,41.73
2022-10-15T13:27:45.717Z,40.53
2022-10-15T13:30:16.762Z,40.23
2022-10-15T13:32:54.407Z,40.43
2022-10-15T13:35:33.269Z,39.93
2022-10-15T13:38:05.292Z,39.66
2022-10-15T13:40:33.766Z,39.17
2022-10-15T13:43:02.839Z,38.94
2022-10-15T13:45:31.492Z,38.52
2022-10-15T13:48:00.524Z,37.66
2022-10-15T13:50:50.387Z,37.66
2022-10-15T13:53:27.643Z,37.09
2022-10-15T13:56:01.510Z,36.61
2022-10-15T13:58:37.759Z,37.01
2022-10-15T14:01:20.809Z,36.25
2022-10-15T14:04:00.971Z,36.29
2022-10-15T14:06:38.750Z,35.88
2022-10-15T14:09:27.203Z,37.07
2022-10-15T14:12:00.551Z,36.96
2022-10-15T14:14:46.634Z,37.77
2022-10-15T14:17:20.597Z,37.76
2022-10-15T14:20:22.083Z,38.33
2022-10-15T14:22:49.671Z,38.71
2022-10-15T14:25:25.167Z,38.90
2022-10-15T14:27:53.804Z,38.73
2022-10-15T14:30:33.273Z,38.97
2022-10-15T14:33:01.757Z,39.11
2022-10-15T14:35:36.697Z,39.21
2022-10-15T14:38:10.933Z,39.57
2022-10-15T14:40:39.235Z,39.86
2022-10-15T14:43:17.546Z,40.34
2022-10-15T14:45:52.282Z,40.27
2022-10-15T14:48:39.014Z,40.53
2022-10-15T14:51:17.686Z,40.95
2022-10-15T14:53:47.364Z,41.16
2022-10-15T14:56:32.258Z,41.49
2022-10-15T14:59:01.318Z,41.82
2022-10-15T15:01:34.052Z,41.83
2022-10-15T15:04:02.463Z,41.76
2022-10-15T15:06:32.907Z,41.83
2022-10-15T15:09:01.170Z,41.58
2022-10-15T15:11:29.538Z,41.73
2022-10-15T15:13:57.952Z,41.81
2022-10-15T15:16:26.237Z,41.92
2022-10-15T15:18:54.604Z,41.95
2022-10-15T15:21:23.785Z,42.46
2022-10-15T15:23:52.085Z,42.65
2022-10-15T15:26:20.373Z,42.79
2022-10-15T15:28:48.656Z,42.84
2022-10-15T15:31:18.803Z,43.10
2022-10-15T15:33:47.079Z,43.16
2022-10-15T15:36:22.484Z,43.26
2022-10-15T15:38:52.215Z,43.19
2022-10-15T15:41:24.076Z,43.22
2022-10-15T15:43:55.181Z,43.57
2022-10-15T15:46:23.584Z,43.41
2022-10-15T15:48:51.821Z,43.34
2022-10-15T15:51:25.582Z,43.71
2022-10-15T15:53:54.802Z,44.12
2022-10-15T15:56:23.619Z,43.93
2022-10-15T15:58:51.969Z,44.14
2022-10-15T16:01:21.298Z,44.17
2022-10-15T16:03:49.671Z,44.16
2022-10-15T16:06:18.149Z,44.15
2022-10-15T16:08:46.468Z,44.09
2022-10-15T16:11:14.818Z,44.01
2022-10-15T16:13:43.331Z,44.09
2022-10-15T16:16:13.222Z,44.10
2022-10-15T16:18:42.133Z,44.45
2022-10-15T16:21:10.397Z,44.74
2022-10-15T16:23:38.642Z,44.27
2022-10-15T16:26:06.935Z,44.26
2022-10-15T16:28:35.328Z,44.29
2022-10-15T16:31:36.745Z,44.10
2022-10-15T16:34:05.351Z,44.31
2022-10-15T16:36:33.916Z,44.39
2022-10-15T16:39:03.623Z,44.75
2022-10-15T16:41:32.021Z,44.83
2022-10-15T16:44:00.381Z,44.94
2022-10-15T16:46:28.774Z,45.03
2022-10-15T16:48:58.010Z,45.20
2022-10-15T16:51:26.916Z,45.34
2022-10-15T16:53:55.447Z,45.26
2022-10-15T16:56:27.800Z,45.59
2022-10-15T16:58:56.507Z,45.57
2022-10-15T17:01:28.746Z,45.83
2022-10-15T17:03:59.772Z,45.93
2022-10-15T17:06:31.059Z,46.23
2022-10-15T17:09:03.708Z,46.36
2022-10-15T17:11:35.803Z,46.46
2022-10-15T17:14:11.658Z,46.76
2022-10-15T17:16:51.470Z,46.51
2022-10-15T17:19:29.136Z,46.44
2022-10-15T17:22:00.163Z,46.60
2022-10-15T17:24:28.721Z,47.01
2022-10-15T17:26:58.192Z,47.10
2022-10-15T17:29:29.159Z,47.06
2022-10-15T17:32:03.164Z,47.30
2022-10-15T17:34:31.557Z,47.46
2022-10-15T17:36:59.934Z,47.74
2022-10-15T17:39:28.295Z,47.60
2022-10-15T17:41:56.469Z,47.60
2022-10-15T17:44:24.952Z,47.60
2022-10-15T17:46:53.448Z,47.57
2022-10-15T17:49:27.748Z,47.44
2022-10-15T17:51:56.346Z,47.60
2022-10-15T17:54:24.827Z,47.68
2022-10-15T17:56:53.410Z,47.77
2022-10-15T17:59:21.891Z,47.64
2022-10-15T18:01:58.262Z,48.02
2022-10-15T18:04:29.913Z,47.89
2022-10-15T18:06:58.534Z,48.11
2022-10-15T18:09:28.391Z,48.33
2022-10-15T18:12:00.748Z,48.34
2022-10-15T18:14:30.308Z,48.77
2022-10-15T18:16:58.773Z,48.83
2022-10-15T18:19:28.340Z,48.86
2022-10-15T18:21:57.182Z,49.09
2022-10-15T18:24:25.541Z,49.49
2022-10-15T18:26:54.396Z,49.64
2022-10-15T18:29:24.122Z,50.02
2022-10-15T18:31:57.351Z,50.22
2022-10-15T18:34:28.477Z,50.50
2022-10-15T18:36:57.177Z,50.97
2022-10-15T18:39:27.181Z,50.89
2022-10-15T18:41:55.647Z,51.53
2022-10-15T18:44:24.666Z,51.85
2022-10-15T18:46:53.030Z,51.68
2022-10-15T18:49:22.513Z,52.33
2022-10-15T18:51:52.032Z,52.39
2022-10-15T18:54:21.133Z,52.90
2022-10-15T18:56:50.678Z,53.08
2022-10-15T18:59:20.863Z,53.65
2022-10-15T19:01:51.058Z,53.96
2022-10-15T19:04:20.312Z,54.25
2022-10-15T19:06:52.121Z,54.24
2022-10-15T19:09:26.442Z,54.34
2022-10-15T19:11:56.536Z,54.58
2022-10-15T19:14:28.320Z,54.58
2022-10-15T19:16:58.115Z,54.66
2022-10-15T19:19:26.804Z,54.92
2022-10-15T19:21:58.590Z,55.02
2022-10-15T19:24:26.901Z,55.16
2022-10-15T19:26:55.286Z,54.76
2022-10-15T19:29:24.307Z,55.29
2022-10-15T19:31:55.178Z,55.09
2022-10-15T19:34:25.302Z,55.47
2022-10-15T19:36:53.671Z,55.49
2022-10-15T19:39:24.438Z,55.45
2022-10-15T19:41:53.191Z,55.39
2022-10-15T19:44:25.788Z,55.59
2022-10-15T19:46:56.384Z,55.24
2022-10-15T19:49:25.521Z,55.45
2022-10-15T19:51:53.859Z,55.38
2022-10-15T19:54:22.688Z,55.16
2022-10-15T19:56:50.983Z,55.42
2022-10-15T19:59:19.377Z,55.35
2022-10-15T20:01:47.966Z,55.34
2022-10-15T20:04:20.634Z,55.21
2022-10-15T20:06:52.738Z,55.28
2022-10-15T20:09:21.005Z,55.12
2022-10-15T20:11:49.384Z,55.37
2022-10-15T20:14:17.887Z,55.46
2022-10-15T20:16:46.258Z,55.43
2022-10-15T20:19:14.636Z,55.19
2022-10-15T20:21:42.993Z,55.45
2022-10-15T20:24:11.260Z,55.86
2022-10-15T20:26:40.473Z,55.25
2022-10-15T20:29:09.789Z,55.14
2022-10-15T20:31:38.372Z,55.23
2022-10-15T20:34:06.641Z,55.17
2022-10-15T20:36:35.046Z,55.25
2022-10-15T20:39:03.499Z,55.17
2022-10-15T20:41:31.862Z,55.11
2022-10-15T20:44:00.232Z,54.63
2022-10-15T20:46:38.688Z,54.78
2022-10-15T20:51:45.954Z,54.63
2022-10-15T20:54:14.785Z,54.61
2022-10-15T20:56:43.249Z,54.37
2022-10-15T20:59:12.453Z,54.03
2022-10-15T21:01:40.813Z,54.07
2022-10-15T21:04:09.182Z,54.13
2022-10-15T21:06:37.582Z,54.11
2022-10-15T21:09:05.949Z,54.12
2022-10-15T21:11:34.234Z,53.91
2022-10-15T21:14:02.606Z,54.16
2022-10-15T21:19:04.925Z,54.06
2022-10-15T21:21:33.319Z,54.40
2022-10-15T21:24:01.679Z,54.10
2022-10-15T21:26:29.934Z,54.41
2022-10-15T21:29:00.261Z,54.76
2022-10-15T21:31:28.774Z,54.85
2022-10-15T21:33:57.405Z,54.42
2022-10-15T21:36:28.463Z,54.45
2022-10-15T21:39:03.884Z,54.43
2022-10-15T21:41:34.141Z,54.37
2022-10-15T21:44:05.248Z,54.13
2022-10-15T21:46:34.782Z,54.38
2022-10-15T21:49:04.162Z,54.42
2022-10-15T21:51:36.325Z,54.42
2022-10-15T21:54:07.259Z,54.55
2022-10-15T21:56:36.559Z,54.79
2022-10-15T21:59:05.461Z,54.76
2022-10-15T22:01:37.989Z,54.83
2022-10-15T22:04:10.201Z,55.14
2022-10-15T22:06:40.427Z,55.21
2022-10-15T22:09:10.662Z,55.40
2022-10-15T22:11:41.561Z,55.67
2022-10-15T22:14:13.927Z,55.98
2022-10-15T22:16:42.959Z,56.18
2022-10-15T22:19:15.542Z,56.21
2022-10-15T22:21:44.781Z,56.23
2022-10-15T22:24:20.259Z,56.32
2022-10-15T22:26:52.148Z,56.31
2022-10-15T22:29:31.674Z,56.51
2022-10-15T22:32:04.257Z,56.51
2022-10-15T22:34:32.643Z,56.76
2022-10-15T22:37:00.915Z,56.65
2022-10-15T22:39:29.402Z,56.90
2022-10-15T22:41:57.774Z,56.85
2022-10-15T22:44:26.050Z,57.19
2022-10-15T22:46:54.408Z,57.19
2022-10-15T22:49:25.674Z,57.31
2022-10-15T22:51:53.908Z,57.44
2022-10-15T22:54:23.402Z,57.75
2022-10-15T22:56:52.134Z,57.38
2022-10-15T22:59:20.714Z,57.36
2022-10-15T23:01:49.204Z,57.67
2022-10-15T23:04:17.476Z,57.62
2022-10-15T23:06:45.940Z,57.84
2022-10-15T23:09:18.158Z,58.25
2022-10-15T23:11:47.039Z,58.56
2022-10-15T23:14:16.802Z,58.80
2022-10-15T23:16:48.082Z,58.69
2022-10-15T23:19:20.642Z,58.18
2022-10-15T23:21:58.326Z,58.88
2022-10-15T23:24:27.722Z,58.66
2022-10-15T23:26:56.403Z,58.82
2022-10-15T23:29:27.010Z,58.45
2022-10-15T23:31:55.598Z,58.12
2022-10-15T23:34:26.240Z,58.31
2022-10-15T23:36:54.976Z,58.33
2022-10-15T23:39:25.833Z,58.35
2022-10-15T23:41:54.887Z,58.65
2022-10-15T23:44:25.942Z,58.57
2022-10-15T23:46:55.111Z,58.67
2022-10-15T23:49:23.638Z,58.88
2022-10-15T23:51:51.997Z,58.89
2022-10-15T23:54:20.493Z,59.07
2022-10-15T23:56:48.959Z,59.00
2022-10-15T23:59:18.477Z,59.15
